createdAt,value
2023-03-26T00:00:11.130Z,99805.06
2023-03-26T00:03:16.980Z,99812.75
2023-03-26T00:06:25.592Z,99804.13
2023-03-26T00:09:29.938Z,99801.63
2023-03-26T00:12:32.585Z,99796.69
2023-03-26T00:15:36.461Z,99770.78
2023-03-26T00:18:40.463Z,99794.63
2023-03-26T00:21:42.840Z,99806.09
2023-03-26T00:24:48.441Z,99780.41
2023-03-26T00:27:50.937Z,99778.34
2023-03-26T00:31:05.623Z,99807.25
2023-03-26T00:34:08.538Z,99796.94
2023-03-26T00:37:12.577Z,99803.81
2023-03-26T00:40:14.998Z,99803.25
2023-03-26T00:43:19.382Z,99786.16
2023-03-26T00:46:22.938Z,99766.66
2023-03-26T00:49:26.794Z,99764.16
2023-03-26T00:52:29.759Z,99782.38
2023-03-26T00:55:32.362Z,99757.59
2023-03-26T00:58:35.181Z,99776.88
2023-03-26T01:01:37.877Z,99769.06
2023-03-26T01:04:40.404Z,99738.00
2023-03-26T01:07:44.716Z,99761.59
2023-03-26T01:10:50.968Z,99759.91
2023-03-26T01:14:04.792Z,99740.53
2023-03-26T01:17:09.198Z,99765.16
2023-03-26T01:20:19.360Z,99770.56
2023-03-26T01:23:28.386Z,99766.53
2023-03-26T01:26:48.135Z,99751.97
2023-03-26T01:30:03.891Z,99748.09
2023-03-26T01:33:18.726Z,99780.75
2023-03-26T01:36:32.443Z,99757.97
2023-03-26T01:39:49.165Z,99758.41
2023-03-26T01:43:18.900Z,99778.81
2023-03-26T01:46:23.821Z,99764.84
2023-03-26T01:49:29.469Z,99761.41
2023-03-26T01:52:32.252Z,99770.09
2023-03-26T01:55:59.383Z,99753.47
2023-03-26T01:59:13.355Z,99778.69
2023-03-26T02:02:30.846Z,99777.19
2023-03-26T02:05:37.573Z,99785.69
2023-03-26T02:08:51.235Z,99799.44
2023-03-26T02:11:54.944Z,99772.06
2023-03-26T02:15:01.297Z,99798.53
2023-03-26T02:18:04.196Z,99783.16
2023-03-26T02:21:11.028Z,99803.37
2023-03-26T02:24:13.907Z,99783.16
2023-03-26T02:27:18.423Z,99798.53
2023-03-26T02:30:29.940Z,99803.81
2023-03-26T02:33:32.918Z,99801.41
2023-03-26T02:36:36.154Z,99784.56
2023-03-26T02:39:39.215Z,99769.97
2023-03-26T02:42:42.650Z,99794.53
2023-03-26T02:45:46.862Z,99786.72
2023-03-26T02:48:52.742Z,99755.66
2023-03-26T02:51:56.301Z,99776.50
2023-03-26T02:55:00.418Z,99746.28
2023-03-26T02:58:03.063Z,99769.62
2023-03-26T03:01:06.093Z,99743.28
2023-03-26T03:04:11.032Z,99741.91
2023-03-26T03:07:15.054Z,99746.28
2023-03-26T03:10:21.933Z,99761.28
2023-03-26T03:13:26.655Z,99767.81
2023-03-26T03:16:30.419Z,99781.44
2023-03-26T03:19:33.125Z,99777.44
2023-03-26T03:22:36.422Z,99766.22
2023-03-26T03:25:41.102Z,99756.47
2023-03-26T03:28:45.276Z,99792.22
2023-03-26T03:31:49.028Z,99764.25
2023-03-26T03:34:52.334Z,99762.78
2023-03-26T03:37:54.738Z,99763.56
2023-03-26T03:40:58.426Z,99776.50
2023-03-26T03:44:01.812Z,99758.88
2023-03-26T03:47:04.500Z,99785.25
2023-03-26T03:50:07.678Z,99780.66
2023-03-26T03:53:10.646Z,99800.94
2023-03-26T03:56:14.787Z,99808.94
2023-03-26T03:59:20.808Z,99799.84
2023-03-26T04:02:26.721Z,99768.53
2023-03-26T04:05:30.889Z,99773.22
2023-03-26T04:08:34.027Z,99777.53
2023-03-26T04:11:37.010Z,99805.69
2023-03-26T04:14:40.653Z,99784.53
2023-03-26T04:17:43.952Z,99793.94
2023-03-26T04:20:46.830Z,99812.75
2023-03-26T04:23:50.106Z,99800.50
2023-03-26T04:26:53.557Z,99782.97
2023-03-26T04:29:58.190Z,99793.31
2023-03-26T04:33:04.252Z,99776.53
2023-03-26T04:36:11.611Z,99788.16
2023-03-26T04:39:14.204Z,99772.22
2023-03-26T04:42:21.194Z,99796.09
2023-03-26T04:45:24.353Z,99777.28
2023-03-26T04:48:28.277Z,99807.53
2023-03-26T04:51:38.418Z,99787.47
2023-03-26T04:54:46.031Z,99778.44
2023-03-26T04:57:55.697Z,99807.78
2023-03-26T05:01:09.828Z,99812.59
2023-03-26T05:04:14.448Z,99780.75
2023-03-26T05:07:21.372Z,99783.28
2023-03-26T05:10:23.934Z,99803.47
2023-03-26T05:13:27.543Z,99774.03
2023-03-26T05:16:31.885Z,99799.22
2023-03-26T05:19:35.449Z,99794.53
2023-03-26T05:22:38.625Z,99772.91
2023-03-26T05:25:42.413Z,99800.12
2023-03-26T05:28:45.904Z,99809.63
2023-03-26T05:31:48.802Z,99806.09
2023-03-26T05:34:51.432Z,99806.56
2023-03-26T05:37:54.135Z,99767.91
2023-03-26T05:41:06.271Z,99763.44
2023-03-26T05:44:09.665Z,99777.41
2023-03-26T05:47:12.105Z,99800.19
2023-03-26T05:50:14.762Z,99775.53
2023-03-26T05:53:18.995Z,99779.66
2023-03-26T05:56:40.898Z,99800.81
2023-03-26T05:59:45.534Z,99784.69
2023-03-26T06:02:51.995Z,99791.59
2023-03-26T06:06:00.812Z,99776.81
2023-03-26T06:09:04.543Z,99783.50
2023-03-26T06:12:09.464Z,99797.75
2023-03-26T06:15:13.756Z,99786.97
2023-03-26T06:18:17.784Z,99772.06
2023-03-26T06:21:20.927Z,99755.34
2023-03-26T06:24:24.261Z,99760.94
2023-03-26T06:27:26.760Z,99780.28
2023-03-26T06:30:29.948Z,99791.81
2023-03-26T06:33:33.479Z,99781.06
2023-03-26T06:36:36.973Z,99767.44
2023-03-26T06:39:39.524Z,99791.84
2023-03-26T06:43:08.783Z,99787.41
2023-03-26T06:46:05.421Z,99786.66
2023-03-26T06:49:08.796Z,99785.13
2023-03-26T06:52:13.392Z,99780.34
2023-03-26T06:55:16.553Z,99709.94
2023-03-26T06:58:19.277Z,99790.25
2023-03-26T07:01:22.472Z,99769.81
2023-03-26T07:04:44.398Z,99745.03
2023-03-26T07:07:57.195Z,99795.37
2023-03-26T07:11:11.264Z,99791.88
2023-03-26T07:14:18.035Z,99746.62
2023-03-26T07:17:21.064Z,99783.31
2023-03-26T07:20:24.508Z,99774.28
2023-03-26T07:23:27.583Z,99782.97
2023-03-26T07:26:40.370Z,99778.16
2023-03-26T07:29:59.291Z,99782.25
2023-03-26T07:33:10.188Z,99778.22
2023-03-26T07:36:27.794Z,99792.53
2023-03-26T07:39:45.208Z,99771.97
2023-03-26T07:43:10.486Z,99806.50
2023-03-26T07:46:14.420Z,99803.37
2023-03-26T07:49:17.941Z,99797.19
2023-03-26T07:52:24.329Z,99803.72
2023-03-26T07:55:27.176Z,99778.19
2023-03-26T07:58:56.235Z,99742.66
2023-03-26T08:02:23.182Z,99802.13
2023-03-26T08:05:37.722Z,99779.75
2023-03-26T08:09:02.881Z,99796.19
2023-03-26T08:12:33.983Z,99800.56
2023-03-26T08:15:49.823Z,99797.50
2023-03-26T08:19:06.213Z,99804.72
2023-03-26T08:22:17.269Z,99798.38
2023-03-26T08:25:27.636Z,99797.59
2023-03-26T08:28:47.021Z,99771.41
2023-03-26T08:31:50.716Z,99800.19
2023-03-26T08:34:53.146Z,99791.34
2023-03-26T08:37:55.870Z,99800.38
2023-03-26T08:41:10.559Z,99783.81
2023-03-26T08:44:41.793Z,99789.38
2023-03-26T08:48:25.820Z,99789.13
2023-03-26T08:52:06.096Z,99788.16
2023-03-26T08:55:23.960Z,99767.13
2023-03-26T08:58:57.252Z,99775.41
2023-03-26T09:02:17.406Z,99779.13
2023-03-26T09:05:46.637Z,99783.00
2023-03-26T09:09:19.072Z,99769.78
2023-03-26T09:12:33.849Z,99772.16
2023-03-26T09:15:36.087Z,99758.25
2023-03-26T09:19:10.995Z,99769.75
2023-03-26T09:22:13.188Z,99742.84
2023-03-26T09:25:25.315Z,99766.63
2023-03-26T09:28:45.437Z,99752.53
2023-03-26T09:31:48.003Z,99753.25
2023-03-26T09:35:12.613Z,99754.41
2023-03-26T09:38:45.480Z,99746.72
2023-03-26T09:42:15.496Z,99744.50
2023-03-26T09:45:18.013Z,99716.41
2023-03-26T09:48:20.787Z,99733.19
2023-03-26T09:51:33.263Z,99729.81
2023-03-26T09:54:44.535Z,99732.19
2023-03-26T09:58:25.021Z,99727.97
2023-03-26T10:01:42.824Z,99712.22
2023-03-26T10:05:05.011Z,99713.09
2023-03-26T10:08:36.867Z,99718.53
2023-03-26T10:12:31.629Z,99675.59
2023-03-26T10:15:59.415Z,99674.84
2023-03-26T10:19:31.651Z,99681.66
2023-03-26T10:23:14.437Z,99683.63
2023-03-26T10:27:12.854Z,99667.97
2023-03-26T10:30:29.551Z,99676.34
2023-03-26T10:34:01.310Z,99677.75
2023-03-26T10:37:22.442Z,99685.94
2023-03-26T10:41:05.091Z,99699.16
2023-03-26T10:44:28.072Z,99702.06
2023-03-26T10:47:55.132Z,99684.12
2023-03-26T10:51:06.272Z,99685.66
2023-03-26T10:54:15.049Z,99672.81
2023-03-26T10:57:54.578Z,99677.88
2023-03-26T11:01:06.133Z,99663.91
2023-03-26T11:04:28.901Z,99625.53
2023-03-26T11:07:53.823Z,99638.25
2023-03-26T11:11:14.260Z,99637.19
2023-03-26T11:14:34.756Z,99606.59
2023-03-26T11:17:41.567Z,99626.09
2023-03-26T11:20:57.637Z,99622.50
2023-03-26T11:25:03.861Z,99620.84
2023-03-26T11:28:15.974Z,99608.12
2023-03-26T11:32:01.788Z,99596.69
2023-03-26T11:35:14.867Z,99566.97
2023-03-26T11:38:37.544Z,99591.19
2023-03-26T11:41:40.790Z,99556.91
2023-03-26T11:44:50.357Z,99572.06
2023-03-26T11:47:59.727Z,99566.59
2023-03-26T11:51:08.551Z,99563.50
2023-03-26T11:54:12.744Z,99535.69
2023-03-26T11:57:26.314Z,99552.75
2023-03-26T12:00:30.271Z,99529.66
2023-03-26T12:03:33.828Z,99522.84
2023-03-26T12:06:36.215Z,99534.81
2023-03-26T12:09:53.519Z,99515.72
2023-03-26T12:12:59.113Z,99491.03
2023-03-26T12:16:13.995Z,99490.22
2023-03-26T12:19:20.108Z,99497.41
2023-03-26T12:22:38.583Z,99493.53
2023-03-26T12:25:40.930Z,99477.59
2023-03-26T12:28:49.365Z,99475.19
2023-03-26T12:32:02.962Z,99463.72
2023-03-26T12:35:08.152Z,99449.03
2023-03-26T12:38:22.037Z,99449.03
2023-03-26T12:44:44.553Z,99433.56
2023-03-26T12:45:06.878Z,99419.22
2023-03-26T12:48:12.997Z,99432.25
2023-03-26T12:51:24.937Z,99417.94
2023-03-26T12:54:56.594Z,99403.59
2023-03-26T12:58:26.070Z,99411.41
2023-03-26T13:01:38.882Z,99423.84
2023-03-26T13:05:05.096Z,99421.13
2023-03-26T13:08:38.184Z,99408.41
2023-03-26T13:11:41.570Z,99393.38
2023-03-26T13:15:22.051Z,99397.38
2023-03-26T13:18:43.591Z,99386.25
2023-03-26T13:22:06.440Z,99362.38
2023-03-26T13:25:30.273Z,99366.22
2023-03-26T13:28:39.387Z,99343.69
2023-03-26T13:31:49.498Z,99367.09
2023-03-26T13:34:55.211Z,99356.81
2023-03-26T13:38:23.761Z,99350.50
2023-03-26T13:41:42.907Z,99344.91
2023-03-26T13:44:52.873Z,99326.59
2023-03-26T13:48:16.927Z,99329.59
2023-03-26T13:51:28.916Z,99308.03
2023-03-26T13:54:44.786Z,99339.06
2023-03-26T13:58:03.232Z,99309.41
2023-03-26T14:01:19.528Z,99325.78
2023-03-26T14:04:25.079Z,99293.97
2023-03-26T14:07:34.712Z,99307.81
2023-03-26T14:10:43.054Z,99290.47
2023-03-26T14:14:04.075Z,99273.38
2023-03-26T14:17:25.620Z,99293.19
2023-03-26T14:20:34.053Z,99278.13
2023-03-26T14:24:11.608Z,99281.31
2023-03-26T14:27:29.037Z,99272.56
2023-03-26T14:30:48.219Z,99236.84
2023-03-26T14:34:04.822Z,99265.06
2023-03-26T14:37:27.908Z,99259.91
2023-03-26T14:40:33.797Z,99256.72
2023-03-26T14:43:48.922Z,99255.91
2023-03-26T14:47:07.520Z,99247.16
2023-03-26T14:50:20.257Z,99249.53
2023-03-26T14:53:33.519Z,99240.03
2023-03-26T14:56:39.224Z,99240.09
2023-03-26T15:00:07.258Z,99238.91
2023-03-26T15:03:26.002Z,99236.13
2023-03-26T15:06:47.186Z,99216.28
2023-03-26T15:10:47.394Z,99206.75
2023-03-26T15:13:56.253Z,99201.22
2023-03-26T15:17:30.691Z,99206.00
2023-03-26T15:20:56.526Z,99203.66
2023-03-26T15:24:24.493Z,99200.87
2023-03-26T15:27:32.880Z,99196.91
2023-03-26T15:31:10.731Z,99189.00
2023-03-26T15:34:20.165Z,99187.03
2023-03-26T15:37:27.384Z,99179.88
2023-03-26T15:40:48.663Z,99172.75
2023-03-26T15:47:27.287Z,99182.66
2023-03-26T15:50:45.797Z,99176.72
2023-03-26T15:53:57.633Z,99145.38
2023-03-26T15:57:16.982Z,99164.84
2023-03-26T16:00:25.905Z,99171.16
2023-03-26T16:03:53.700Z,99161.63
2023-03-26T16:07:03.673Z,99150.94
2023-03-26T16:10:20.401Z,99141.03
2023-03-26T16:13:26.582Z,99129.53
2023-03-26T16:16:59.219Z,99118.03
2023-03-26T16:20:35.679Z,99124.37
2023-03-26T16:23:47.528Z,99113.28
2023-03-26T16:27:10.644Z,99104.16
2023-03-26T16:30:19.490Z,99080.78
2023-03-26T16:33:37.551Z,99091.06
2023-03-26T16:36:45.003Z,99086.34
2023-03-26T16:39:48.228Z,99071.25
2023-03-26T16:43:10.395Z,99091.88
2023-03-26T16:46:29.529Z,99094.25
2023-03-26T16:49:46.849Z,99076.00
2023-03-26T16:53:29.907Z,99095.03
2023-03-26T16:57:10.190Z,99094.16
2023-03-26T17:00:44.958Z,99094.16
2023-03-26T17:04:17.293Z,99101.25
2023-03-26T17:07:42.060Z,99093.31
2023-03-26T17:11:03.060Z,99087.37
2023-03-26T17:18:00.812Z,99053.63
2023-03-26T17:21:18.540Z,99093.25
2023-03-26T17:24:41.835Z,99074.16
2023-03-26T17:28:27.496Z,99094.81
2023-03-26T17:31:39.216Z,99093.19
2023-03-26T17:34:50.940Z,99093.97
2023-03-26T17:37:53.828Z,99095.56
2023-03-26T17:40:58.874Z,99077.28
2023-03-26T17:44:26.120Z,99074.09
2023-03-26T17:47:58.548Z,99077.28
2023-03-26T17:51:27.978Z,99089.16
2023-03-26T17:54:39.399Z,99061.00
2023-03-26T17:57:46.502Z,99086.78
2023-03-26T18:01:07.567Z,99092.31
2023-03-26T18:04:21.573Z,99089.91
2023-03-26T18:08:08.196Z,99085.97
2023-03-26T18:11:50.881Z,99068.09
2023-03-26T18:15:02.087Z,99067.69
2023-03-26T18:18:16.503Z,99091.53
2023-03-26T18:21:24.950Z,99086.75
2023-03-26T18:24:31.453Z,99085.94
2023-03-26T18:27:38.880Z,99085.94
2023-03-26T18:30:48.742Z,99083.56
2023-03-26T18:33:59.046Z,99076.44
2023-03-26T18:37:11.513Z,99089.09
2023-03-26T18:40:19.168Z,99077.59
2023-03-26T18:43:34.384Z,99040.31
2023-03-26T18:46:37.305Z,99063.31
2023-03-26T18:49:46.160Z,99047.09
2023-03-26T18:52:48.853Z,99034.38
2023-03-26T18:55:52.415Z,99055.00
2023-03-26T18:58:58.010Z,99049.84
2023-03-26T19:02:05.914Z,99022.50
2023-03-26T19:05:14.241Z,99017.75
2023-03-26T19:08:17.631Z,99007.84
2023-03-26T19:11:20.156Z,99004.69
2023-03-26T19:14:25.277Z,99019.38
2023-03-26T19:17:31.772Z,98995.19
2023-03-26T19:20:43.866Z,99013.00
2023-03-26T19:23:47.413Z,99013.44
2023-03-26T19:26:50.901Z,98990.03
2023-03-26T19:29:53.541Z,98986.44
2023-03-26T19:33:13.229Z,99005.47
2023-03-26T19:36:19.505Z,98978.88
2023-03-26T19:39:36.469Z,98982.03
2023-03-26T19:42:43.818Z,98966.97
2023-03-26T19:45:59.352Z,98949.19
2023-03-26T19:49:04.355Z,98946.06
2023-03-26T19:52:15.999Z,98959.56
2023-03-26T19:55:22.503Z,98956.78
2023-03-26T19:58:26.588Z,98950.47
2023-03-26T20:01:30.420Z,98917.97
2023-03-26T20:04:33.108Z,98918.75
2023-03-26T20:07:39.330Z,98922.75
2023-03-26T20:10:43.109Z,98927.53
2023-03-26T20:13:46.414Z,98892.66
2023-03-26T20:16:49.396Z,98881.59
2023-03-26T20:19:54.281Z,98891.50
2023-03-26T20:22:56.948Z,98894.31
2023-03-26T20:25:59.327Z,98880.09
2023-03-26T20:29:03.075Z,98875.34
2023-03-26T20:32:18.407Z,98872.16
2023-03-26T20:35:36.285Z,98872.91
2023-03-26T20:38:40.144Z,98864.16
2023-03-26T20:41:50.149Z,98839.59
2023-03-26T20:44:52.502Z,98840.34
2023-03-26T20:47:55.130Z,98825.34
2023-03-26T20:50:57.585Z,98853.47
2023-03-26T20:54:00.672Z,98836.44
2023-03-26T20:57:03.398Z,98842.72
2023-03-26T21:00:19.244Z,98841.53
2023-03-26T21:03:21.597Z,98835.53
2023-03-26T21:06:24.221Z,98826.84
2023-03-26T21:09:34.273Z,98822.91
2023-03-26T21:12:43.383Z,98799.91
2023-03-26T21:15:46.124Z,98822.50
2023-03-26T21:18:49.024Z,98819.28
2023-03-26T21:22:20.749Z,98809.41
2023-03-26T21:25:39.326Z,98822.09
2023-03-26T21:28:47.595Z,98815.72
2023-03-26T21:31:53.459Z,98850.44
2023-03-26T21:34:59.227Z,98840.84
2023-03-26T21:38:04.502Z,98847.59
2023-03-26T21:41:07.763Z,98868.62
2023-03-26T21:44:10.937Z,98869.38
2023-03-26T21:47:13.708Z,98858.28
2023-03-26T21:50:19.376Z,98872.91
2023-03-26T21:53:22.611Z,98855.41
2023-03-26T21:56:36.478Z,98856.19
2023-03-26T21:59:46.325Z,98790.38
2023-03-26T22:03:12.376Z,98851.38
2023-03-26T22:06:51.361Z,98869.97
2023-03-26T22:09:53.977Z,98866.41
2023-03-26T22:12:56.889Z,98834.72
2023-03-26T22:15:59.484Z,98863.66
2023-03-26T22:19:02.221Z,98851.84
2023-03-26T22:22:05.398Z,98831.22
2023-03-26T22:25:10.387Z,98849.50
2023-03-26T22:28:12.997Z,98845.53
2023-03-26T22:31:16.678Z,98843.56
2023-03-26T22:34:19.849Z,98833.56
2023-03-26T22:37:23.473Z,98843.09
2023-03-26T22:40:26.521Z,98827.13
2023-03-26T22:43:29.454Z,98823.88
2023-03-26T22:46:31.840Z,98811.94
2023-03-26T22:49:34.624Z,98826.13
2023-03-26T22:52:37.702Z,98794.00
2023-03-26T22:55:40.520Z,98807.88
2023-03-26T22:58:42.903Z,98787.66
2023-03-26T23:01:45.907Z,98801.88
2023-03-26T23:04:48.847Z,98784.84
2023-03-26T23:07:52.282Z,98770.12
2023-03-26T23:10:54.887Z,98791.63
2023-03-26T23:13:57.721Z,98798.47
2023-03-26T23:17:00.520Z,98787.22
2023-03-26T23:20:13.705Z,98771.78
2023-03-26T23:23:16.097Z,98755.06
2023-03-26T23:26:18.943Z,98770.91
2023-03-26T23:29:21.556Z,98767.75
2023-03-26T23:32:28.118Z,98766.69
2023-03-26T23:35:30.561Z,98752.53
2023-03-26T23:38:43.640Z,98745.00
2023-03-26T23:41:46.663Z,98757.50
2023-03-26T23:44:49.366Z,98728.53
2023-03-26T23:47:51.782Z,98754.94
2023-03-26T23:51:02.989Z,98742.16
2023-03-26T23:54:27.130Z,98730.63
2023-03-26T23:57:30.598Z,98721.97
